Time;durP1;ratioP1;P1;durP2;ratioP2;P2;SDS_P1;SDS_P2;PMS_P1;PMS_P2;Temp;Humidity;BMP_temperature;BMP_pressure;BME280_temperature;BME280_humidity;BME280_pressure;Samples;Min_cycle;Max_cycle;Signal;HPM_P1;HPM_P2
2023/12/14 00:01:13;;;;;;;17.17;15.47;;;;;;;11.03;100.00;4254.06;6185023;23;20198;-60
2023/12/14 00:03:43;;;;;;;17.13;15.43;;;;;;;11.11;100.00;4895.50;6185270;23;20158;-60
2023/12/14 00:06:12;;;;;;;16.93;15.20;;;;;;;10.98;100.00;3613.28;6185350;23;20657;-61
2023/12/14 00:08:40;;;;;;;17.30;15.60;;;;;;;11.26;100.00;2975.94;6185556;23;20229;-60
2023/12/14 00:11:07;;;;;;;22.47;20.37;;;;;;;11.38;100.00;4899.09;6185657;23;20162;-60
2023/12/14 00:13:35;;;;;;;15.67;14.07;;;;;;;11.43;100.00;5861.13;6185379;23;20490;-61
2023/12/14 00:16:02;;;;;;;17.20;15.60;;;;;;;11.52;100.00;4580.34;6185124;23;20182;-60
2023/12/14 00:18:30;;;;;;;17.30;15.50;;;;;;;11.57;100.00;3940.13;6185096;23;20228;-59
2023/12/14 00:20:57;;;;;;;17.13;15.63;;;;;;;11.52;100.00;3939.53;6185286;23;20497;-59
2023/12/14 00:23:26;;;;;;;16.10;14.70;;;;;;;11.50;100.00;2017.56;6185534;23;20162;-61
2023/12/14 00:25:53;;;;;;;16.57;14.93;;;;;;;11.77;100.00;1699.53;6184471;23;20245;-60
2023/12/14 00:28:20;;;;;;;16.73;15.20;;;;;;;11.62;100.00;7467.50;6184961;23;20170;-60
2023/12/14 00:30:47;;;;;;;16.90;15.23;;;;;;;11.46;100.00;15170.81;6184801;23;20158;-61
2023/12/14 00:33:14;;;;;;;16.30;14.90;;;;;;;11.34;100.00;21601.34;6184817;23;20185;-61
2023/12/14 00:35:41;;;;;;;16.83;15.27;;;;;;;11.14;100.00;19018.94;6185206;23;20182;-59
2023/12/14 00:38:08;;;;;;;16.73;15.40;;;;;;;11.04;100.00;19980.09;6185168;23;20170;-59
2023/12/14 00:40:36;;;;;;;17.93;16.10;;;;;;;10.98;100.00;19334.91;6185083;23;20163;-60
2023/12/14 00:43:03;;;;;;;17.80;16.20;;;;;;;10.83;100.00;17721.94;6185054;23;20525;-59
2023/12/14 00:45:30;;;;;;;18.53;16.37;;;;;;;10.72;100.00;12260.28;6184633;23;20479;-60
2023/12/14 00:47:57;;;;;;;19.57;17.37;;;;;;;10.85;100.00;4251.91;6184923;23;20166;-60
2023/12/14 00:50:24;;;;;;;18.80;17.10;;;;;;;10.92;100.00;-1184.72;6184879;23;20165;-60
2023/12/14 00:52:51;;;;;;;19.33;16.77;;;;;;;10.90;100.00;-2143.38;6184779;23;20197;-61
2023/12/14 00:55:18;;;;;;;17.80;16.30;;;;;;;10.92;100.00;1692.78;6185135;23;20182;-59
2023/12/14 00:57:47;;;;;;;16.23;14.77;;;;;;;10.85;100.00;5212.31;6185073;23;20162;-61
2023/12/14 01:00:15;;;;;;;15.20;13.90;;;;;;;10.82;100.00;3931.44;6185041;23;20494;-61
2023/12/14 01:02:42;;;;;;;15.53;13.93;;;;;;;10.86;100.00;1372.50;6184535;23;20241;-59
2023/12/14 01:05:09;;;;;;;15.20;14.00;;;;;;;10.90;100.00;733.25;6184657;23;20155;-59
2023/12/14 01:07:36;;;;;;;15.87;14.33;;;;;;;10.90;100.00;3612.31;6184353;23;20225;-59
2023/12/14 01:10:04;;;;;;;14.93;13.77;;;;;;;10.88;100.00;6173.34;6184833;23;20597;-60
2023/12/14 01:12:31;;;;;;;14.83;13.70;;;;;;;10.81;100.00;10338.19;6184847;23;20558;-60
2023/12/14 01:14:59;;;;;;;14.07;13.17;;;;;;;10.78;100.00;8414.28;6184814;23;20527;-59
2023/12/14 01:17:27;;;;;;;13.10;12.30;;;;;;;10.79;100.00;3291.13;6184643;23;20162;-60
2023/12/14 01:19:54;;;;;;;15.47;14.17;;;;;;;10.69;100.00;5530.22;6184290;23;20170;-59
2023/12/14 01:22:21;;;;;;;15.50;14.03;;;;;;;10.50;100.00;11292.97;6184769;23;20217;-59
2023/12/14 01:24:48;;;;;;;14.73;13.63;;;;;;;10.51;100.00;14179.75;6184881;23;20177;-60
2023/12/14 01:27:15;;;;;;;22.57;18.40;;;;;;;10.47;100.00;14499.63;6184358;23;20166;-60
2023/12/14 01:29:42;;;;;;;16.50;14.87;;;;;;;10.40;100.00;16423.22;6184459;23;20162;-59
2023/12/14 01:32:11;;;;;;;16.30;14.77;;;;;;;10.33;100.00;14495.56;6184665;23;20158;-60
2023/12/14 01:34:38;;;;;;;14.47;13.07;;;;;;;10.12;100.00;13848.16;6184242;23;20166;-60
2023/12/14 01:37:05;;;;;;;15.60;13.93;;;;;;;10.16;100.00;10003.66;6184054;23;20162;-59
2023/12/14 01:39:32;;;;;;;15.60;14.23;;;;;;;10.05;100.00;9681.19;6184808;23;20162;-60
2023/12/14 01:41:59;;;;;;;16.57;15.03;;;;;;;10.08;100.00;7121.13;6184488;23;20162;-60
2023/12/14 01:44:26;;;;;;;14.50;13.40;;;;;;;10.02;100.00;6480.22;6184282;23;20220;-61
2023/12/14 01:46:53;;;;;;;15.67;14.23;;;;;;;10.04;100.00;6480.63;6184375;23;20213;-61
2023/12/14 01:49:22;;;;;;;15.47;14.27;;;;;;;10.00;100.00;7439.63;6184422;23;20162;-60
2023/12/14 01:51:49;;;;;;;15.20;13.90;;;;;;;9.97;100.00;6479.44;6184898;23;20177;-60
2023/12/14 01:54:16;;;;;;;15.00;13.43;;;;;;;9.96;100.00;7438.91;6183932;23;20206;-60
2023/12/14 01:56:43;;;;;;;15.23;13.87;;;;;;;9.90;100.00;5199.34;6184579;23;20178;-59
2023/12/14 01:59:10;;;;;;;14.90;13.90;;;;;;;9.78;100.00;5837.00;6184042;23;20162;-59
2023/12/14 02:01:41;;;;;;;14.97;13.73;;;;;;;9.58;100.00;3597.88;6184393;23;20668;-60
2023/12/14 02:04:08;;;;;;;14.77;13.37;;;;;;;9.60;100.00;2959.41;6184239;23;20155;-60
2023/12/14 02:06:36;;;;;;;15.50;14.00;;;;;;;9.58;100.00;3597.88;6184043;23;20158;-61
2023/12/14 02:09:04;;;;;;;14.87;13.60;;;;;;;9.65;100.00;4556.97;6184593;23;20217;-59
2023/12/14 02:11:31;;;;;;;14.43;13.43;;;;;;;9.53;100.00;6472.66;6184132;23;20162;-59
2023/12/14 02:13:58;;;;;;;14.97;13.77;;;;;;;9.62;100.00;6474.06;6184328;23;20162;-59
2023/12/14 02:16:25;;;;;;;15.13;13.90;;;;;;;9.66;100.00;6794.31;6183864;23;20228;-59
2023/12/14 02:18:52;;;;;;;14.73;13.37;;;;;;;9.64;100.00;6474.38;6184215;23;20162;-60
2023/12/14 02:21:19;;;;;;;15.77;14.23;;;;;;;9.69;100.00;6155.34;6184081;23;20162;-60
2023/12/14 02:23:48;;;;;;;15.80;14.30;;;;;;;9.60;100.00;6793.44;6184160;23;20162;-60
2023/12/14 02:26:15;;;;;;;14.27;13.17;;;;;;;9.59;100.00;5514.78;6184161;23;20163;-59
2023/12/14 02:28:42;;;;;;;15.07;13.87;;;;;;;9.64;100.00;4237.44;6183946;23;20166;-60
2023/12/14 02:31:09;;;;;;;13.67;12.60;;;;;;;9.48;100.00;6791.47;6184212;23;20217;-60
2023/12/14 02:33:36;;;;;;;15.13;13.93;;;;;;;9.52;100.00;6472.50;6183984;23;20162;-59
2023/12/14 02:36:04;;;;;;;15.10;13.83;;;;;;;9.53;100.00;5833.50;6184087;23;20517;-60
2023/12/14 02:38:31;;;;;;;14.80;13.60;;;;;;;9.54;100.00;6153.22;6183873;23;20221;-60
2023/12/14 02:40:59;;;;;;;14.37;13.10;;;;;;;9.53;100.00;6153.06;6184046;23;20220;-60
2023/12/14 02:43:26;;;;;;;13.17;11.97;;;;;;;9.63;100.00;4876.28;6184077;23;20181;-59
2023/12/14 02:45:55;;;;;;;14.03;13.00;;;;;;;9.81;100.00;1684.09;6184181;23;20201;-58
2023/12/14 02:48:22;;;;;;;15.43;14.13;;;;;;;9.92;100.00;2962.56;6183481;23;20205;-60
2023/12/14 02:50:49;;;;;;;15.07;13.77;;;;;;;9.90;100.00;7118.00;6183678;23;20158;-59
2023/12/14 02:53:16;;;;;;;15.10;13.53;;;;;;;9.88;100.00;9357.41;6183588;23;20208;-59
2023/12/14 02:55:43;;;;;;;14.50;13.40;;;;;;;9.84;100.00;8716.66;6183759;23;20652;-58
2023/12/14 02:58:11;;;;;;;13.77;12.77;;;;;;;9.92;100.00;6158.84;6184149;23;20217;-60
2023/12/14 03:00:38;;;;;;;15.30;13.63;;;;;;;10.03;100.00;3922.44;6184294;23;20549;-59
2023/12/14 03:03:05;;;;;;;17.80;15.37;;;;;;;10.23;100.00;2326.47;6184475;23;20616;-60
2023/12/14 03:05:32;;;;;;;18.33;14.77;;;;;;;10.39;100.00;2008.25;6184011;23;20166;-60
2023/12/14 03:07:59;;;;;;;17.13;15.63;;;;;;;10.60;100.00;2329.75;6183950;23;20162;-61
2023/12/14 03:10:26;;;;;;;17.97;16.17;;;;;;;10.78;100.00;3930.97;6184352;23;20598;-60
2023/12/14 03:12:53;;;;;;;16.57;15.27;;;;;;;10.85;100.00;8200.19;6183356;23;20268;-60
2023/12/14 03:15:22;;;;;;;15.43;14.20;;;;;;;10.78;100.00;14668.81;6183582;23;20260;-60
2023/12/14 03:17:49;;;;;;;19.27;17.43;;;;;;;10.81;100.00;14110.50;6183456;23;20158;-60
2023/12/14 03:20:16;;;;;;;23.43;19.20;;;;;;;10.86;100.00;10228.97;6183768;23;20162;-60
2023/12/14 03:22:43;;;;;;;24.77;19.83;;;;;;;10.91;100.00;6814.53;6183893;23;20615;-59
2023/12/14 03:25:11;;;;;;;22.33;19.97;;;;;;;10.92;100.00;5213.19;6184247;23;20162;-59
2023/12/14 03:27:36;;;;;;;24.23;21.17;;;;;;;11.20;100.00;4256.13;6183403;23;20181;-60
2023/12/14 03:30:07;;;;;;;24.37;21.10;;;;;;;11.34;100.00;4257.75;6183371;23;20158;-60
2023/12/14 03:32:36;;;;;;;25.00;21.50;;;;;;;11.41;100.00;5540.41;6183435;23;20674;-59
2023/12/14 03:35:03;;;;;;;25.40;19.73;;;;;;;11.55;100.00;5542.25;6184150;23;20609;-61
2023/12/14 03:37:30;;;;;;;24.93;20.70;;;;;;;11.59;100.00;7787.69;6183752;23;20162;-60
2023/12/14 03:39:57;;;;;;;22.67;19.73;;;;;;;11.67;100.00;6826.72;6183827;23;20185;-59
2023/12/14 03:42:24;;;;;;;21.47;18.40;;;;;;;11.77;100.00;5224.75;6184056;23;20158;-59
2023/12/14 03:44:51;;;;;;;21.33;18.37;;;;;;;11.80;100.00;4263.31;6183910;23;20197;-60
2023/12/14 03:47:18;;;;;;;23.07;17.93;;;;;;;11.90;100.00;3302.88;6183336;23;20158;-60
2023/12/14 03:49:47;;;;;;;19.10;17.30;;;;;;;12.00;100.00;2021.75;6183388;23;20679;-59
2023/12/14 03:52:14;;;;;;;19.57;17.47;;;;;;;12.04;100.00;1381.25;6183476;23;20653;-60
2023/12/14 03:54:41;;;;;;;19.33;17.33;;;;;;;12.05;100.00;99.88;6183671;23;20163;-60
2023/12/14 03:57:08;;;;;;;19.83;17.77;;;;;;;12.07;100.00;-1501.13;6183288;23;20258;-59
2023/12/14 03:59:35;;;;;;;18.27;16.60;;;;;;;12.07;100.00;-2461.41;6183843;23;20162;-60
2023/12/14 04:02:02;;;;;;;19.27;16.93;;;;;;;12.15;100.00;-4061.38;6185208;23;20162;-60
2023/12/14 04:04:29;;;;;;;19.10;17.37;;;;;;;12.08;100.00;-4061.28;6185769;23;20162;-59
2023/12/14 04:06:57;;;;;;;20.17;18.30;;;;;;;12.23;100.00;-5341.16;6184975;23;20169;-60
2023/12/14 04:09:24;;;;;;;23.13;18.47;;;;;;;12.31;100.00;-5661.28;6185619;23;20162;-59
2023/12/14 04:11:52;;;;;;;21.27;17.67;;;;;;;12.28;100.00;-5341.34;6185245;23;20162;-60
2023/12/14 04:14:19;;;;;;;23.30;17.77;;;;;;;12.38;100.00;-5021.72;6185068;23;20162;-60
2023/12/14 04:16:46;;;;;;;20.23;17.80;;;;;;;12.29;100.00;-4381.56;6185415;23;20268;-58
2023/12/14 04:19:13;;;;;;;19.40;17.57;;;;;;;12.41;100.00;-3101.38;6185710;23;20166;-60
2023/12/14 04:21:40;;;;;;;17.97;16.23;;;;;;;12.39;100.00;-1179.91;6185008;23;20162;-60
2023/12/14 04:24:09;;;;;;;19.00;16.33;;;;;;;12.34;100.00;1383.47;6185439;23;20162;-60
2023/12/14 04:26:36;;;;;;;18.13;16.53;;;;;;;12.42;100.00;1704.66;6185249;23;20176;-61
2023/12/14 04:29:03;;;;;;;18.17;16.33;;;;;;;12.43;100.00;1704.75;6185403;23;20178;-59
2023/12/14 04:31:30;;;;;;;20.23;17.03;;;;;;;12.47;100.00;2025.75;6184994;23;20202;-59
2023/12/14 04:33:57;;;;;;;18.70;16.93;;;;;;;12.44;100.00;3308.44;6185138;23;20162;-60
2023/12/14 04:36:24;;;;;;;16.73;15.23;;;;;;;12.44;100.00;3308.44;6185232;23;20240;-59
2023/12/14 04:38:52;;;;;;;16.27;14.83;;;;;;;12.46;100.00;3308.66;6184971;23;20197;-59
2023/12/14 04:41:20;;;;;;;20.30;16.13;;;;;;;12.47;100.00;3950.47;6185157;23;20159;-60
2023/12/14 04:43:47;;;;;;;18.67;16.67;;;;;;;12.47;100.00;3629.63;6184725;23;20158;-58
2023/12/14 04:46:14;;;;;;;20.37;15.40;;;;;;;12.31;100.00;3627.88;6185279;23;20601;-60
2023/12/14 04:48:41;;;;;;;17.73;16.20;;;;;;;12.42;100.00;3308.25;6185113;23;20194;-61
2023/12/14 04:51:13;;;;;;;16.87;15.37;;;;;;;12.41;100.00;2987.41;6185396;23;20561;-60
2023/12/14 04:53:40;;;;;;;17.23;15.63;;;;;;;12.43;100.00;2666.88;6184629;23;20204;-61
2023/12/14 04:56:12;;;;;;;22.20;17.27;;;;;;;12.33;100.00;7479.81;6184730;23;20189;-62
2023/12/14 04:58:41;;;;;;;24.63;18.03;;;;;;;12.15;100.00;15513.06;6184618;23;20221;-60
2023/12/14 05:01:08;;;;;;;27.53;17.93;;;;;;;12.04;100.00;18407.09;6184779;23;20220;-60
2023/12/14 05:03:36;;;;;;;22.67;16.87;;;;;;;11.93;100.00;19691.50;6184553;23;20162;-60
2023/12/14 05:06:03;;;;;;;31.50;17.10;;;;;;;11.62;100.00;19679.91;6185834;23;20676;-61
2023/12/14 05:08:31;;;;;;;17.23;14.23;;;;;;;11.69;100.00;19360.53;6185073;23;20174;-61
2023/12/14 05:10:58;;;;;;;25.73;18.47;;;;;;;11.63;100.00;13889.84;6184825;23;20170;-60
2023/12/14 05:13:25;;;;;;;21.07;18.83;;;;;;;11.67;100.00;8751.81;6184998;23;20549;-61
2023/12/14 05:15:53;;;;;;;22.43;14.80;;;;;;;11.67;100.00;5864.69;6184951;23;20163;-60
2023/12/14 05:18:20;;;;;;;16.53;12.87;;;;;;;11.70;100.00;2980.28;6184881;23;20549;-59
2023/12/14 05:20:47;;;;;;;13.37;12.27;;;;;;;11.82;100.00;739.06;6184796;23;20228;-60
2023/12/14 05:23:14;;;;;;;13.80;12.60;;;;;;;11.89;100.00;99.03;6184639;23;20221;-60
2023/12/14 05:25:41;;;;;;;14.20;12.93;;;;;;;11.87;100.00;-541.38;6184534;23;20162;-61
2023/12/14 05:28:09;;;;;;;13.07;11.93;;;;;;;12.02;100.00;-220.50;6184762;23;20590;-59
2023/12/14 05:30:36;;;;;;;13.60;10.97;;;;;;;12.17;100.00;-540.09;6184667;23;20559;-60
2023/12/14 05:33:04;;;;;;;13.17;12.07;;;;;;;12.25;100.00;421.38;6184254;23;20216;-61
2023/12/14 05:35:31;;;;;;;11.53;10.70;;;;;;;12.34;100.00;1383.50;6184551;23;20549;-60
2023/12/14 05:37:58;;;;;;;11.43;10.47;;;;;;;12.34;100.00;2024.72;6184226;23;20182;-60
2023/12/14 05:40:25;;;;;;;11.90;10.83;;;;;;;12.34;100.00;3628.28;6184523;23;20680;-60
2023/12/14 05:42:53;;;;;;;11.10;10.30;;;;;;;12.56;100.00;4593.47;6184460;23;20475;-60
2023/12/14 05:45:20;;;;;;;10.23;9.53;;;;;;;12.70;100.00;7164.78;6184462;23;20209;-59
2023/12/14 05:47:47;;;;;;;10.03;9.33;;;;;;;12.57;100.00;10698.19;6184520;23;20162;-60
2023/12/14 05:50:15;;;;;;;11.47;10.07;;;;;;;12.79;100.00;13278.00;6184629;23;20517;-60
2023/12/14 05:52:43;;;;;;;11.03;10.20;;;;;;;12.81;100.00;15210.78;6184086;23;20661;-59
2023/12/14 05:55:11;;;;;;;11.43;10.33;;;;;;;12.81;100.00;16821.97;6184001;23;20158;-59
2023/12/14 05:57:38;;;;;;;10.30;9.73;;;;;;;12.85;100.00;20693.38;6184418;23;20697;-60
2023/12/14 06:00:07;;;;;;;12.20;10.37;;;;;;;12.80;100.00;25535.66;6184175;23;20162;-60
2023/12/14 06:02:36;;;;;;;10.97;10.13;;;;;;;12.68;100.00;26822.41;6183940;23;20169;-60
2023/12/14 06:05:03;;;;;;;11.13;10.50;;;;;;;12.73;100.00;21979.72;6183886;23;20158;-60
2023/12/14 06:07:31;;;;;;;10.63;9.70;;;;;;;12.75;100.00;21335.25;6184362;23;20162;-61
2023/12/14 06:09:58;;;;;;;10.90;9.90;;;;;;;12.79;100.00;21982.41;6183794;23;20162;-60
2023/12/14 06:12:25;;;;;;;12.07;11.27;;;;;;;12.82;100.00;21660.63;6184236;23;20162;-59
2023/12/14 06:14:52;;;;;;;12.30;11.23;;;;;;;12.87;100.00;21339.84;6183880;23;20162;-60
2023/12/14 06:17:20;;;;;;;13.17;11.97;;;;;;;13.01;100.00;21345.25;6184248;23;20553;-59
2023/12/14 06:19:47;;;;;;;14.03;12.90;;;;;;;13.08;100.00;22316.91;6183644;23;20162;-61
2023/12/14 06:22:14;;;;;;;13.90;12.33;;;;;;;13.10;100.00;26195.97;6183669;23;20233;-60
2023/12/14 06:24:42;;;;;;;14.70;13.40;;;;;;;13.15;100.00;27492.50;6184052;23;20162;-60
2023/12/14 06:27:10;;;;;;;13.03;12.10;;;;;;;13.20;100.00;29112.91;6183849;23;20570;-59
2023/12/14 06:29:37;;;;;;;13.70;12.40;;;;;;;13.17;100.00;30730.47;6183542;23;20237;-60
2023/12/14 06:32:05;;;;;;;14.33;12.83;;;;;;;13.24;100.00;31058.25;6183944;23;20186;-61
2023/12/14 06:34:32;;;;;;;27.23;21.47;;;;;;;13.22;100.00;36243.75;6184046;23;20165;-59
2023/12/14 06:36:59;;;;;;;32.50;22.97;;;;;;;13.22;100.00;44363.56;6183467;23;20320;-60
2023/12/14 06:39:27;;;;;;;30.67;22.17;;;;;;;13.11;100.00;53471.63;6183973;23;20593;-59
2023/12/14 06:41:55;;;;;;;20.63;18.33;;;;;;;13.08;100.00;49884.69;6183574;23;20197;-59
2023/12/14 06:44:22;;;;;;;24.10;18.40;;;;;;;13.00;100.00;45322.19;6183475;23;20158;-60
2023/12/14 06:46:49;;;;;;;20.93;18.83;;;;;;;13.21;100.00;41112.44;6183471;23;20478;-61
2023/12/14 06:49:16;;;;;;;24.27;17.20;;;;;;;13.23;100.00;37866.91;6183908;23;20208;-61
2023/12/14 06:51:44;;;;;;;14.30;13.00;;;;;;;13.34;100.00;34304.59;6183875;23;20170;-60
2023/12/14 06:54:11;;;;;;;12.20;11.40;;;;;;;13.37;100.00;34955.09;6183693;23;20205;-59
2023/12/14 06:56:38;;;;;;;15.27;13.93;;;;;;;13.47;100.00;34636.94;6183762;23;20232;-59
2023/12/14 06:59:07;;;;;;;9.67;8.90;;;;;;;13.56;100.00;36914.31;6183453;23;20209;-59
2023/12/14 07:01:34;;;;;;;9.03;8.57;;;;;;;13.67;100.00;39195.63;6183758;23;20166;-58
2023/12/14 07:04:02;;;;;;;11.43;10.27;;;;;;;13.74;100.00;38875.19;6183749;23;20169;-58
2023/12/14 07:06:29;;;;;;;9.57;8.87;;;;;;;13.94;100.00;44093.72;6183118;23;20162;-59
2023/12/14 07:08:56;;;;;;;10.10;9.17;;;;;;;13.95;100.00;52243.19;6183748;23;20612;-59
2023/12/14 07:11:24;;;;;;;8.93;8.50;;;;;;;14.17;100.00;58798.16;6183202;23;20229;-58
2023/12/14 07:13:51;;;;;;;8.97;7.93;;;;;;;14.28;100.00;63064.34;6183358;23;20265;-58
2023/12/14 07:16:19;;;;;;;7.87;7.37;;;;;;;14.37;100.00;69304.88;6183269;23;20162;-58
2023/12/14 07:18:46;;;;;;;8.97;7.97;;;;;;;14.48;100.00;82473.72;6183901;23;20274;-59
2023/12/14 07:21:13;;;;;;;8.37;7.80;;;;;;;14.55;100.00;90401.44;6183397;23;20201;-57
2023/12/14 07:23:41;;;;;;;8.07;7.50;;;;;;;14.61;100.00;96031.16;6183288;23;20151;-58
2023/12/14 07:26:08;;;;;;;8.20;7.70;;;;;;;14.63;100.00;101332.84;6184842;23;20534;-58
2023/12/14 07:28:35;;;;;;;8.47;7.57;;;;;;;14.65;100.00;102993.72;6183395;23;20163;-59
2023/12/14 07:31:02;;;;;;;8.43;7.83;;;;;;;14.70;100.00;103665.75;6183367;23;20177;-59
2023/12/14 07:33:30;;;;;;;18.90;10.07;;;;;;;14.67;100.00;105650.91;6183565;23;20158;-59
2023/12/14 07:35:57;;;;;;;10.27;9.10;;;;;;;14.81;100.00;102026.88;6185255;23;20625;-59
2023/12/14 07:38:24;;;;;;;9.97;8.93;;;;;;;14.87;100.00;103695.69;6185407;23;20181;-58
2023/12/14 07:40:52;;;;;;;10.37;9.37;;;;;;;14.94;100.00;106695.44;6184970;23;20163;-58
2023/12/14 07:43:19;;;;;;;9.73;8.67;;;;;;;15.04;100.00;113029.84;6185220;23;20159;-58
2023/12/14 07:45:46;;;;;;;8.53;7.93;;;;;;;15.07;100.00;116364.66;6185751;23;20162;-60
2023/12/14 07:48:13;;;;;;;8.83;8.40;;;;;;;15.18;100.00;121052.28;6185646;23;20163;-58
2023/12/14 07:50:42;;;;;;;8.93;8.27;;;;;;;15.26;100.00;123070.94;6184856;23;20216;-58
2023/12/14 07:53:09;;;;;;;8.77;8.17;;;;;;;15.35;100.00;124759.38;6184562;23;20552;-59
2023/12/14 07:55:36;;;;;;;10.83;8.20;;;;;;;15.27;100.00;133435.16;6185428;23;20169;-58
2023/12/14 07:58:03;;;;;;;7.87;7.00;;;;;;;15.37;100.00;141288.03;6185122;23;20182;-57
2023/12/14 08:00:30;;;;;;;7.63;7.23;;;;;;;15.56;100.00;149948.59;6185047;23;20158;-60
2023/12/14 08:02:57;;;;;;;7.83;7.40;;;;;;;15.61;100.00;147256.94;6185211;23;20476;-60
2023/12/14 08:05:24;;;;;;;7.60;6.87;;;;;;;15.60;100.00;149958.72;6184879;23;20553;-59
2023/12/14 08:07:53;;;;;;;7.87;7.47;;;;;;;15.82;100.00;150013.31;6184671;23;20159;-58
2023/12/14 08:10:20;;;;;;;10.13;9.43;;;;;;;15.95;100.00;150046.31;6184826;23;20166;-59
2023/12/14 08:12:48;;;;;;;15.77;11.63;;;;;;;16.03;100.00;150065.34;6184835;23;20228;-60
2023/12/14 08:15:16;;;;;;;24.00;20.23;;;;;;;15.83;100.00;150015.81;6184869;23;20174;-59
2023/12/14 08:17:43;;;;;;;20.83;18.63;;;;;;;15.93;100.00;150042.50;6184935;23;20204;-58
2023/12/14 08:20:12;;;;;;;27.83;17.70;;;;;;;15.95;100.00;150047.56;6185093;23;20166;-59
2023/12/14 08:22:43;;;;;;;37.37;26.43;;;;;;;15.91;100.00;150037.41;6185041;23;20181;-59
2023/12/14 08:25:14;;;;;;;52.63;30.70;;;;;;;15.60;100.00;148121.47;6185145;23;20194;-58
2023/12/14 08:27:41;;;;;;;33.00;21.47;;;;;;;15.58;100.00;125808.44;6184512;23;20200;-58
2023/12/14 08:30:09;;;;;;;45.60;32.27;;;;;;;15.66;100.00;125492.28;6185174;23;20163;-57
2023/12/14 08:32:36;;;;;;;44.37;30.70;;;;;;;15.50;100.00;142616.06;6185031;23;20478;-58
2023/12/14 08:35:04;;;;;;;37.93;30.13;;;;;;;15.53;100.00;127804.69;6185069;23;20232;-59
2023/12/14 08:37:31;;;;;;;42.33;27.20;;;;;;;15.54;100.00;125132.63;6184834;23;20685;-60
2023/12/14 08:39:58;;;;;;;39.10;27.13;;;;;;;15.71;100.00;123830.91;6184522;23;20170;-59
2023/12/14 08:42:26;;;;;;;39.17;25.20;;;;;;;15.89;100.00;120528.13;6185165;23;20601;-59
2023/12/14 08:44:53;;;;;;;53.73;29.77;;;;;;;15.97;100.00;113872.91;6184617;23;20162;-59
2023/12/14 08:47:21;;;;;;;43.33;25.60;;;;;;;15.95;100.00;122211.44;6184506;23;20498;-58
2023/12/14 08:49:48;;;;;;;47.70;29.33;;;;;;;15.98;100.00;132589.16;6183986;23;20162;-61
2023/12/14 08:52:15;;;;;;;61.53;33.67;;;;;;;16.07;100.00;132943.38;6183281;23;20204;-60
2023/12/14 08:54:43;;;;;;;44.17;30.13;;;;;;;16.29;100.00;139370.34;6184315;23;20165;-60
2023/12/14 08:57:10;;;;;;;45.67;28.63;;;;;;;16.39;100.00;150156.72;6183940;23;20178;-61
2023/12/14 08:59:39;;;;;;;99.37;32.03;;;;;;;16.47;100.00;148745.03;6184521;23;20213;-61
2023/12/14 09:02:06;;;;;;;67.33;31.27;;;;;;;16.61;100.00;145409.72;6184671;23;20224;-62
2023/12/14 09:04:35;;;;;;;89.33;34.17;;;;;;;16.59;100.00;150172.09;6184507;23;20216;-61
2023/12/14 09:07:03;;;;;;;69.37;32.40;;;;;;;16.80;100.00;150259.69;6184118;23;20158;-61
2023/12/14 09:09:32;;;;;;;53.67;25.50;;;;;;;16.76;100.00;150249.53;6184656;23;20597;-61
2023/12/14 09:11:59;;;;;;;62.60;24.13;;;;;;;16.89;100.00;150282.50;6184187;23;20162;-61
2023/12/14 09:14:26;;;;;;;89.20;29.13;;;;;;;16.97;100.00;150302.88;6184585;23;20557;-61
2023/12/14 09:16:55;;;;;;;71.67;27.17;;;;;;;17.03;100.00;150316.81;6184263;23;20166;-60
2023/12/14 09:19:22;;;;;;;100.57;28.80;;;;;;;17.17;100.00;150352.41;6184275;23;20163;-61
2023/12/14 09:21:49;;;;;;;115.47;26.47;;;;;;;17.27;100.00;150377.81;6184620;23;20542;-61
2023/12/14 09:24:17;;;;;;;82.10;21.27;;;;;;;17.14;100.00;150346.03;6184443;23;20162;-62
2023/12/14 09:26:44;;;;;;;79.47;18.47;;;;;;;17.18;100.00;150356.22;6183837;23;20162;-61
2023/12/14 09:29:11;;;;;;;48.20;14.97;;;;;;;17.20;100.00;150361.28;6184182;23;20155;-62
2023/12/14 09:31:41;;;;;;;35.83;11.90;;;;;;;17.28;100.00;150380.34;6183796;23;20177;-61
2023/12/14 09:34:10;;;;;;;12.30;8.67;;;;;;;17.26;100.00;150375.28;6184240;23;20162;-61
2023/12/14 09:36:37;;;;;;;17.23;7.90;;;;;;;17.36;100.00;150400.66;6184414;23;20162;-60
2023/12/14 09:39:05;;;;;;;15.90;7.47;;;;;;;17.37;100.00;150403.22;6184024;23;20209;-60
2023/12/14 09:41:32;;;;;;;7.87;7.10;;;;;;;17.58;100.00;150456.63;6184164;23;20158;-60
2023/12/14 09:43:59;;;;;;;13.23;7.47;;;;;;;17.51;100.00;150438.81;6183580;23;20181;-61
2023/12/14 09:46:28;;;;;;;26.77;8.03;;;;;;;17.57;100.00;150454.03;6184139;23;20166;-61
2023/12/14 09:48:58;;;;;;;29.47;7.93;;;;;;;17.66;100.00;150475.69;6183963;23;20572;-61
2023/12/14 09:51:28;;;;;;;59.00;9.53;;;;;;;17.61;100.00;150464.25;6184108;23;20217;-60
2023/12/14 09:53:57;;;;;;;93.50;13.00;;;;;;;17.59;100.00;150457.91;6184001;23;20252;-60
2023/12/14 09:56:25;;;;;;;77.83;19.37;;;;;;;17.67;100.00;150478.25;6183974;23;20542;-60
2023/12/14 09:58:52;;;;;;;70.23;14.67;;;;;;;17.72;100.00;150490.97;6183401;23;20240;-60
2023/12/14 10:01:25;;;;;;;94.17;13.97;;;;;;;17.64;100.00;150471.91;6183506;23;20229;-62
2023/12/14 10:04:09;;;;;;;50.27;10.53;;;;;;;17.72;100.00;150492.22;6184099;23;20162;-61
2023/12/14 10:06:37;;;;;;;50.90;10.43;;;;;;;17.81;100.00;150513.84;6183842;23;20245;-62
2023/12/14 10:09:08;;;;;;;9.77;6.07;;;;;;;17.82;100.00;150516.41;6184438;23;20189;-61
2023/12/14 10:11:35;;;;;;;8.67;4.77;;;;;;;17.89;100.00;150532.91;6183575;23;20169;-60
2023/12/14 10:14:02;;;;;;;4.73;4.27;;;;;;;18.15;100.00;150600.28;6183545;23;20216;-61
2023/12/14 10:16:31;;;;;;;4.60;4.40;;;;;;;18.20;100.00;150611.75;6183877;23;20602;-61
2023/12/14 10:18:59;;;;;;;5.13;4.83;;;;;;;18.32;100.00;150640.97;6183719;23;20182;-60
2023/12/14 10:21:27;;;;;;;13.87;5.50;;;;;;;18.42;100.00;150667.66;6183710;23;20163;-59
2023/12/14 10:23:57;;;;;;;11.20;5.03;;;;;;;18.59;100.00;150710.94;6183284;23;20166;-61
2023/12/14 10:26:25;;;;;;;17.93;5.80;;;;;;;18.78;100.00;150756.75;6183831;23;20577;-60
2023/12/14 10:28:53;;;;;;;6.37;4.80;;;;;;;18.87;100.00;150779.63;6183243;23;20158;-61
2023/12/14 10:31:21;;;;;;;7.33;4.77;;;;;;;19.05;100.00;150826.69;6183277;23;20186;-61
2023/12/14 10:33:48;;;;;;;8.37;5.47;;;;;;;19.38;100.00;150908.16;6183877;23;20537;-61
2023/12/14 10:36:19;;;;;;;9.40;5.57;;;;;;;19.53;100.00;150947.63;6183463;23;20613;-60
2023/12/14 10:38:52;;;;;;;23.70;7.50;;;;;;;19.67;100.00;150980.72;6183535;23;20245;-60
2023/12/14 10:41:22;;;;;;;13.40;5.73;;;;;;;19.91;100.00;151043.09;6182526;23;20162;-60
2023/12/14 10:43:51;;;;;;;5.53;5.13;;;;;;;20.02;100.00;151069.84;6183449;23;20241;-60
2023/12/14 10:46:25;;;;;;;5.20;4.70;;;;;;;20.21;100.00;151116.94;6183358;23;20220;-61
2023/12/14 10:48:52;;;;;;;6.73;4.97;;;;;;;20.41;100.00;151169.19;6183248;23;20216;-60
2023/12/14 10:51:22;;;;;;;8.38;5.28;;;;;;;20.53;100.00;151198.50;6183438;23;20442;-64
2023/12/14 10:53:51;;;;;;;10.93;5.63;;;;;;;20.38;100.00;151160.28;6182991;23;20202;-60
2023/12/14 10:56:20;;;;;;;11.37;5.70;;;;;;;20.29;100.00;151138.63;6183213;23;20165;-61
2023/12/14 10:58:49;;;;;;;18.80;6.33;;;;;;;20.18;100.00;151109.31;6183591;23;20641;-60
2023/12/14 11:01:17;;;;;;;20.67;6.20;;;;;;;20.14;100.00;151099.13;6183368;23;20173;-60
2023/12/14 11:03:45;;;;;;;25.20;7.40;;;;;;;19.96;100.00;151055.81;6183241;23;20241;-60
2023/12/14 11:06:31;;;;;;;17.17;5.27;;;;;;;19.65;100.00;150975.66;6183203;23;20158;-60
2023/12/14 11:09:00;;;;;;;4.90;4.60;;;;;;;19.08;100.00;150833.06;6185444;23;20262;-64
2023/12/14 11:11:41;;;;;;;6.40;4.53;;;;;;;18.85;100.00;150774.53;6185567;23;20158;-62
2023/12/14 11:14:11;;;;;;;7.83;4.67;;;;;;;18.77;100.00;150754.19;6185654;23;20224;-64
2023/12/14 11:16:44;;;;;;;12.50;4.03;;;;;;;18.75;100.00;150750.41;6185069;23;20163;-64